sensor_id;sensor_type;location;lat;lon;timestamp;temperature;humidity
21216;DHT22;10765;50.954;5.322;2023-06-22T00:00:12;20.70;1.00
21216;DHT22;10765;50.954;5.322;2023-06-22T00:02:39;20.80;1.00
21216;DHT22;10765;50.954;5.322;2023-06-22T00:05:06;20.80;1.00
21216;DHT22;10765;50.954;5.322;2023-06-22T00:07:33;20.70;1.00
21216;DHT22;10765;50.954;5.322;2023-06-22T00:10:00;20.70;1.00
21216;DHT22;10765;50.954;5.322;2023-06-22T00:12:28;20.50;1.00
21216;DHT22;10765;50.954;5.322;2023-06-22T00:14:55;20.40;1.00
21216;DHT22;10765;50.954;5.322;2023-06-22T00:17:22;20.30;1.00
21216;DHT22;10765;50.954;5.322;2023-06-22T00:19:49;20.20;44.70
21216;DHT22;10765;50.954;5.322;2023-06-22T00:22:19;20.10;99.90
21216;DHT22;10765;50.954;5.322;2023-06-22T00:24:54;20.00;1.00
21216;DHT22;10765;50.954;5.322;2023-06-22T00:27:21;20.20;99.90
21216;DHT22;10765;50.954;5.322;2023-06-22T00:29:49;20.20;99.90
21216;DHT22;10765;50.954;5.322;2023-06-22T00:32:17;20.30;22.50
21216;DHT22;10765;50.954;5.322;2023-06-22T00:34:44;20.50;1.00
21216;DHT22;10765;50.954;5.322;2023-06-22T00:37:11;20.50;1.00
21216;DHT22;10765;50.954;5.322;2023-06-22T00:39:38;20.40;1.00
21216;DHT22;10765;50.954;5.322;2023-06-22T00:42:05;20.40;54.80
21216;DHT22;10765;50.954;5.322;2023-06-22T00:44:32;20.50;1.00
21216;DHT22;10765;50.954;5.322;2023-06-22T00:47:00;20.50;1.00
21216;DHT22;10765;50.954;5.322;2023-06-22T00:49:27;20.50;1.00
21216;DHT22;10765;50.954;5.322;2023-06-22T00:51:55;20.60;1.00
21216;DHT22;10765;50.954;5.322;2023-06-22T00:54:22;20.50;1.00
21216;DHT22;10765;50.954;5.322;2023-06-22T00:56:50;20.60;1.00
21216;DHT22;10765;50.954;5.322;2023-06-22T00:59:18;20.60;1.00
21216;DHT22;10765;50.954;5.322;2023-06-22T01:01:45;20.50;1.00
21216;DHT22;10765;50.954;5.322;2023-06-22T01:04:13;20.50;1.00
21216;DHT22;10765;50.954;5.322;2023-06-22T01:06:47;20.60;1.00
21216;DHT22;10765;50.954;5.322;2023-06-22T01:09:23;20.50;1.00
21216;DHT22;10765;50.954;5.322;2023-06-22T01:11:54;20.50;1.00
21216;DHT22;10765;50.954;5.322;2023-06-22T01:14:26;20.50;1.00
21216;DHT22;10765;50.954;5.322;2023-06-22T01:16:55;20.50;1.00
21216;DHT22;10765;50.954;5.322;2023-06-22T01:19:37;20.50;1.00
21216;DHT22;10765;50.954;5.322;2023-06-22T01:22:08;20.60;1.00
21216;DHT22;10765;50.954;5.322;2023-06-22T01:24:45;20.60;1.00
21216;DHT22;10765;50.954;5.322;2023-06-22T01:27:28;20.60;1.00
21216;DHT22;10765;50.954;5.322;2023-06-22T01:30:00;20.50;99.90
21216;DHT22;10765;50.954;5.322;2023-06-22T01:32:30;20.50;99.90
21216;DHT22;10765;50.954;5.322;2023-06-22T01:35:00;20.40;99.90
21216;DHT22;10765;50.954;5.322;2023-06-22T01:37:29;20.30;99.90
21216;DHT22;10765;50.954;5.322;2023-06-22T01:39:58;20.20;99.90
21216;DHT22;10765;50.954;5.322;2023-06-22T01:42:25;20.10;99.90
21216;DHT22;10765;50.954;5.322;2023-06-22T01:44:53;20.20;99.90
21216;DHT22;10765;50.954;5.322;2023-06-22T01:47:22;20.20;99.90
21216;DHT22;10765;50.954;5.322;2023-06-22T01:49:50;20.10;99.90
21216;DHT22;10765;50.954;5.322;2023-06-22T01:52:18;20.10;99.90
21216;DHT22;10765;50.954;5.322;2023-06-22T01:54:47;20.10;99.90
21216;DHT22;10765;50.954;5.322;2023-06-22T01:57:14;20.00;99.90
21216;DHT22;10765;50.954;5.322;2023-06-22T01:59:48;20.00;99.90
21216;DHT22;10765;50.954;5.322;2023-06-22T02:02:19;20.10;99.90
21216;DHT22;10765;50.954;5.322;2023-06-22T02:04:57;20.10;99.90
21216;DHT22;10765;50.954;5.322;2023-06-22T02:07:29;20.20;99.90
21216;DHT22;10765;50.954;5.322;2023-06-22T02:09:59;20.10;99.90
21216;DHT22;10765;50.954;5.322;2023-06-22T02:12:27;20.10;99.90
21216;DHT22;10765;50.954;5.322;2023-06-22T02:14:55;20.10;99.90
21216;DHT22;10765;50.954;5.322;2023-06-22T02:17:22;20.10;99.90
21216;DHT22;10765;50.954;5.322;2023-06-22T02:19:50;20.10;99.90
21216;DHT22;10765;50.954;5.322;2023-06-22T02:22:18;20.20;99.90
21216;DHT22;10765;50.954;5.322;2023-06-22T02:24:45;20.20;99.90
21216;DHT22;10765;50.954;5.322;2023-06-22T02:27:12;20.20;99.90
21216;DHT22;10765;50.954;5.322;2023-06-22T02:29:38;20.20;99.90
21216;DHT22;10765;50.954;5.322;2023-06-22T02:32:06;20.20;99.90
21216;DHT22;10765;50.954;5.322;2023-06-22T02:34:33;20.20;99.90
21216;DHT22;10765;50.954;5.322;2023-06-22T02:37:00;20.20;99.90
21216;DHT22;10765;50.954;5.322;2023-06-22T02:39:29;20.20;99.90
21216;DHT22;10765;50.954;5.322;2023-06-22T02:41:56;20.10;99.90
21216;DHT22;10765;50.954;5.322;2023-06-22T02:44:23;20.00;1.00
21216;DHT22;10765;50.954;5.322;2023-06-22T02:46:50;20.00;1.00
21216;DHT22;10765;50.954;5.322;2023-06-22T02:49:17;19.80;1.00
21216;DHT22;10765;50.954;5.322;2023-06-22T02:51:46;19.80;1.00
21216;DHT22;10765;50.954;5.322;2023-06-22T02:54:13;19.70;1.00
21216;DHT22;10765;50.954;5.322;2023-06-22T02:56:42;19.70;1.00
21216;DHT22;10765;50.954;5.322;2023-06-22T02:59:09;19.70;1.00
21216;DHT22;10765;50.954;5.322;2023-06-22T03:01:37;19.60;1.00
21216;DHT22;10765;50.954;5.322;2023-06-22T03:04:06;19.60;1.00
21216;DHT22;10765;50.954;5.322;2023-06-22T03:06:33;19.50;7.80
21216;DHT22;10765;50.954;5.322;2023-06-22T03:09:02;19.40;99.90
21216;DHT22;10765;50.954;5.322;2023-06-22T03:11:30;19.40;99.90
21216;DHT22;10765;50.954;5.322;2023-06-22T03:13:58;19.50;99.90
21216;DHT22;10765;50.954;5.322;2023-06-22T03:16:25;19.40;99.90
21216;DHT22;10765;50.954;5.322;2023-06-22T03:18:52;19.40;99.90
21216;DHT22;10765;50.954;5.322;2023-06-22T03:21:21;19.40;99.90
21216;DHT22;10765;50.954;5.322;2023-06-22T03:23:48;19.40;99.90
21216;DHT22;10765;50.954;5.322;2023-06-22T03:26:17;19.40;1.00
21216;DHT22;10765;50.954;5.322;2023-06-22T03:28:44;19.40;99.90
21216;DHT22;10765;50.954;5.322;2023-06-22T03:31:12;19.30;1.00
21216;DHT22;10765;50.954;5.322;2023-06-22T03:33:39;19.40;99.90
21216;DHT22;10765;50.954;5.322;2023-06-22T03:36:07;19.40;1.00
21216;DHT22;10765;50.954;5.322;2023-06-22T03:38:34;19.40;1.00
21216;DHT22;10765;50.954;5.322;2023-06-22T03:41:00;19.50;99.90
21216;DHT22;10765;50.954;5.322;2023-06-22T03:43:27;19.50;1.00
21216;DHT22;10765;50.954;5.322;2023-06-22T03:45:54;19.50;1.00
21216;DHT22;10765;50.954;5.322;2023-06-22T03:48:22;19.60;99.90
21216;DHT22;10765;50.954;5.322;2023-06-22T03:50:49;19.60;99.90
21216;DHT22;10765;50.954;5.322;2023-06-22T03:53:16;19.60;99.90
21216;DHT22;10765;50.954;5.322;2023-06-22T03:55:48;19.80;99.90
21216;DHT22;10765;50.954;5.322;2023-06-22T03:58:16;19.80;99.90
21216;DHT22;10765;50.954;5.322;2023-06-22T04:00:44;19.80;99.90
21216;DHT22;10765;50.954;5.322;2023-06-22T04:03:12;19.90;99.90
21216;DHT22;10765;50.954;5.322;2023-06-22T04:05:40;19.90;99.90
21216;DHT22;10765;50.954;5.322;2023-06-22T04:08:08;20.00;58.80
21216;DHT22;10765;50.954;5.322;2023-06-22T04:10:35;20.00;52.50
21216;DHT22;10765;50.954;5.322;2023-06-22T04:13:02;20.00;45.80
21216;DHT22;10765;50.954;5.322;2023-06-22T04:15:29;20.00;19.90
21216;DHT22;10765;50.954;5.322;2023-06-22T04:17:56;19.90;99.90
21216;DHT22;10765;50.954;5.322;2023-06-22T04:20:23;19.90;99.90
21216;DHT22;10765;50.954;5.322;2023-06-22T04:22:54;19.90;99.90
21216;DHT22;10765;50.954;5.322;2023-06-22T04:25:22;20.00;99.90
21216;DHT22;10765;50.954;5.322;2023-06-22T04:27:49;20.10;1.00
21216;DHT22;10765;50.954;5.322;2023-06-22T04:30:16;20.20;1.00
21216;DHT22;10765;50.954;5.322;2023-06-22T04:32:43;20.30;1.00
21216;DHT22;10765;50.954;5.322;2023-06-22T04:35:11;20.40;1.00
21216;DHT22;10765;50.954;5.322;2023-06-22T04:37:41;20.50;1.00
21216;DHT22;10765;50.954;5.322;2023-06-22T04:40:10;20.50;1.00
21216;DHT22;10765;50.954;5.322;2023-06-22T04:42:40;20.40;1.00
21216;DHT22;10765;50.954;5.322;2023-06-22T04:45:18;20.30;1.00
21216;DHT22;10765;50.954;5.322;2023-06-22T04:47:45;20.40;1.00
21216;DHT22;10765;50.954;5.322;2023-06-22T04:50:12;20.50;1.00
21216;DHT22;10765;50.954;5.322;2023-06-22T04:52:39;20.60;1.00
21216;DHT22;10765;50.954;5.322;2023-06-22T04:55:08;20.50;1.00
21216;DHT22;10765;50.954;5.322;2023-06-22T04:57:35;20.50;1.00
21216;DHT22;10765;50.954;5.322;2023-06-22T05:00:06;20.30;1.00
21216;DHT22;10765;50.954;5.322;2023-06-22T05:02:43;20.30;99.90
21216;DHT22;10765;50.954;5.322;2023-06-22T05:05:10;20.20;99.90
21216;DHT22;10765;50.954;5.322;2023-06-22T05:07:39;20.10;99.90
21216;DHT22;10765;50.954;5.322;2023-06-22T05:10:10;19.90;99.90
21216;DHT22;10765;50.954;5.322;2023-06-22T05:12:38;19.60;1.00
21216;DHT22;10765;50.954;5.322;2023-06-22T05:15:09;19.30;1.00
21216;DHT22;10765;50.954;5.322;2023-06-22T05:17:37;19.20;99.90
21216;DHT22;10765;50.954;5.322;2023-06-22T05:20:09;19.20;94.20
21216;DHT22;10765;50.954;5.322;2023-06-22T05:22:36;19.10;1.00
21216;DHT22;10765;50.954;5.322;2023-06-22T05:25:03;18.90;1.00
21216;DHT22;10765;50.954;5.322;2023-06-22T05:27:32;18.90;10.20
21216;DHT22;10765;50.954;5.322;2023-06-22T05:29:58;18.90;1.00
21216;DHT22;10765;50.954;5.322;2023-06-22T05:32:25;19.00;1.00
21216;DHT22;10765;50.954;5.322;2023-06-22T05:34:52;19.10;63.10
21216;DHT22;10765;50.954;5.322;2023-06-22T05:37:19;19.10;99.90
21216;DHT22;10765;50.954;5.322;2023-06-22T05:39:46;19.00;99.90
21216;DHT22;10765;50.954;5.322;2023-06-22T05:42:13;19.00;1.00
21216;DHT22;10765;50.954;5.322;2023-06-22T05:44:41;19.00;1.00
21216;DHT22;10765;50.954;5.322;2023-06-22T05:47:08;19.10;99.90
21216;DHT22;10765;50.954;5.322;2023-06-22T05:49:35;19.10;1.00
21216;DHT22;10765;50.954;5.322;2023-06-22T05:52:02;19.10;19.70
21216;DHT22;10765;50.954;5.322;2023-06-22T05:54:30;19.00;1.00
21216;DHT22;10765;50.954;5.322;2023-06-22T05:56:57;19.20;1.00
21216;DHT22;10765;50.954;5.322;2023-06-22T05:59:24;19.20;1.00
21216;DHT22;10765;50.954;5.322;2023-06-22T06:01:52;19.30;1.00
21216;DHT22;10765;50.954;5.322;2023-06-22T06:04:19;19.30;99.90
21216;DHT22;10765;50.954;5.322;2023-06-22T06:06:46;19.40;1.00
21216;DHT22;10765;50.954;5.322;2023-06-22T06:09:14;19.40;1.00
21216;DHT22;10765;50.954;5.322;2023-06-22T06:11:41;19.50;1.00
21216;DHT22;10765;50.954;5.322;2023-06-22T06:14:07;19.70;1.00
21216;DHT22;10765;50.954;5.322;2023-06-22T06:16:34;19.90;1.00
21216;DHT22;10765;50.954;5.322;2023-06-22T06:19:03;20.10;99.90
21216;DHT22;10765;50.954;5.322;2023-06-22T06:21:29;20.30;99.90
21216;DHT22;10765;50.954;5.322;2023-06-22T06:23:56;20.50;39.00
21216;DHT22;10765;50.954;5.322;2023-06-22T06:26:24;20.60;1.00
21216;DHT22;10765;50.954;5.322;2023-06-22T06:28:55;20.70;1.00
21216;DHT22;10765;50.954;5.322;2023-06-22T06:31:22;20.80;99.90
21216;DHT22;10765;50.954;5.322;2023-06-22T06:33:49;20.80;1.00
21216;DHT22;10765;50.954;5.322;2023-06-22T06:36:17;20.80;99.90
21216;DHT22;10765;50.954;5.322;2023-06-22T06:38:44;20.90;99.90
21216;DHT22;10765;50.954;5.322;2023-06-22T06:41:12;20.90;1.00
21216;DHT22;10765;50.954;5.322;2023-06-22T06:43:39;20.80;1.00
21216;DHT22;10765;50.954;5.322;2023-06-22T06:46:08;20.90;1.00
21216;DHT22;10765;50.954;5.322;2023-06-22T06:48:34;21.00;1.00
21216;DHT22;10765;50.954;5.322;2023-06-22T06:51:02;21.10;1.00
21216;DHT22;10765;50.954;5.322;2023-06-22T06:53:30;21.10;1.00
21216;DHT22;10765;50.954;5.322;2023-06-22T06:55:57;21.30;1.00
21216;DHT22;10765;50.954;5.322;2023-06-22T06:58:24;21.60;99.90
21216;DHT22;10765;50.954;5.322;2023-06-22T07:00:51;21.90;1.00
21216;DHT22;10765;50.954;5.322;2023-06-22T07:03:17;21.90;1.00
21216;DHT22;10765;50.954;5.322;2023-06-22T07:05:44;21.90;1.00
21216;DHT22;10765;50.954;5.322;2023-06-22T07:08:11;22.00;1.00
21216;DHT22;10765;50.954;5.322;2023-06-22T07:10:39;22.20;1.00
21216;DHT22;10765;50.954;5.322;2023-06-22T07:13:06;22.80;99.90
21216;DHT22;10765;50.954;5.322;2023-06-22T07:15:33;23.50;5.10
21216;DHT22;10765;50.954;5.322;2023-06-22T07:18:00;24.10;1.00
21216;DHT22;10765;50.954;5.322;2023-06-22T07:20:27;24.50;1.00
21216;DHT22;10765;50.954;5.322;2023-06-22T07:22:54;24.50;1.00
21216;DHT22;10765;50.954;5.322;2023-06-22T07:25:21;24.20;1.00
21216;DHT22;10765;50.954;5.322;2023-06-22T07:27:59;24.50;1.00
21216;DHT22;10765;50.954;5.322;2023-06-22T07:30:27;24.30;1.00
21216;DHT22;10765;50.954;5.322;2023-06-22T07:32:54;24.30;1.00
21216;DHT22;10765;50.954;5.322;2023-06-22T07:35:21;24.20;1.00
21216;DHT22;10765;50.954;5.322;2023-06-22T07:37:51;23.80;1.00
21216;DHT22;10765;50.954;5.322;2023-06-22T07:40:18;23.80;1.00
21216;DHT22;10765;50.954;5.322;2023-06-22T07:42:45;23.90;1.00
21216;DHT22;10765;50.954;5.322;2023-06-22T07:45:15;24.10;1.00
21216;DHT22;10765;50.954;5.322;2023-06-22T07:47:41;24.00;1.00
21216;DHT22;10765;50.954;5.322;2023-06-22T07:50:09;23.90;1.00
21216;DHT22;10765;50.954;5.322;2023-06-22T07:52:36;23.80;1.00
21216;DHT22;10765;50.954;5.322;2023-06-22T07:55:04;23.40;1.00
21216;DHT22;10765;50.954;5.322;2023-06-22T07:57:31;23.40;1.00
21216;DHT22;10765;50.954;5.322;2023-06-22T08:00:03;23.40;1.00
21216;DHT22;10765;50.954;5.322;2023-06-22T08:02:39;23.60;1.00
21216;DHT22;10765;50.954;5.322;2023-06-22T08:05:07;23.90;1.00
21216;DHT22;10765;50.954;5.322;2023-06-22T08:07:34;24.20;1.00
21216;DHT22;10765;50.954;5.322;2023-06-22T08:10:01;24.70;1.00
21216;DHT22;10765;50.954;5.322;2023-06-22T08:12:28;24.80;1.00
21216;DHT22;10765;50.954;5.322;2023-06-22T08:14:54;24.80;1.00
21216;DHT22;10765;50.954;5.322;2023-06-22T08:17:22;25.00;1.00
21216;DHT22;10765;50.954;5.322;2023-06-22T08:19:50;25.10;1.00
21216;DHT22;10765;50.954;5.322;2023-06-22T08:22:17;25.60;1.00
21216;DHT22;10765;50.954;5.322;2023-06-22T08:24:44;26.30;1.00
21216;DHT22;10765;50.954;5.322;2023-06-22T08:27:11;26.20;99.90
21216;DHT22;10765;50.954;5.322;2023-06-22T08:29:39;25.70;99.90
21216;DHT22;10765;50.954;5.322;2023-06-22T08:32:08;25.60;1.00
21216;DHT22;10765;50.954;5.322;2023-06-22T08:34:35;25.50;1.00
21216;DHT22;10765;50.954;5.322;2023-06-22T08:37:04;25.40;1.00
21216;DHT22;10765;50.954;5.322;2023-06-22T08:39:31;25.70;1.00
21216;DHT22;10765;50.954;5.322;2023-06-22T08:41:59;26.00;1.00
21216;DHT22;10765;50.954;5.322;2023-06-22T08:44:26;26.50;99.90
21216;DHT22;10765;50.954;5.322;2023-06-22T08:46:53;26.70;99.90
21216;DHT22;10765;50.954;5.322;2023-06-22T08:49:20;26.20;99.90
21216;DHT22;10765;50.954;5.322;2023-06-22T08:51:46;26.00;99.90
21216;DHT22;10765;50.954;5.322;2023-06-22T08:54:16;25.70;99.90
21216;DHT22;10765;50.954;5.322;2023-06-22T08:56:43;25.80;1.00
21216;DHT22;10765;50.954;5.322;2023-06-22T08:59:10;25.60;99.90
21216;DHT22;10765;50.954;5.322;2023-06-22T09:01:37;25.40;1.00
21216;DHT22;10765;50.954;5.322;2023-06-22T09:04:04;25.10;1.00
21216;DHT22;10765;50.954;5.322;2023-06-22T09:06:33;24.90;1.00
21216;DHT22;10765;50.954;5.322;2023-06-22T09:08:59;24.90;1.00
21216;DHT22;10765;50.954;5.322;2023-06-22T09:11:28;24.90;1.00
21216;DHT22;10765;50.954;5.322;2023-06-22T09:13:55;25.10;1.00
21216;DHT22;10765;50.954;5.322;2023-06-22T09:16:22;24.90;1.00
21216;DHT22;10765;50.954;5.322;2023-06-22T09:18:49;25.00;1.00
21216;DHT22;10765;50.954;5.322;2023-06-22T09:21:16;25.10;1.00
21216;DHT22;10765;50.954;5.322;2023-06-22T09:23:43;25.10;1.00
21216;DHT22;10765;50.954;5.322;2023-06-22T09:26:12;24.70;1.00
21216;DHT22;10765;50.954;5.322;2023-06-22T09:28:41;24.70;1.00
21216;DHT22;10765;50.954;5.322;2023-06-22T09:31:08;24.70;1.00
21216;DHT22;10765;50.954;5.322;2023-06-22T09:33:35;24.70;1.00
21216;DHT22;10765;50.954;5.322;2023-06-22T09:36:04;24.70;1.00
21216;DHT22;10765;50.954;5.322;2023-06-22T09:38:34;24.70;1.00
21216;DHT22;10765;50.954;5.322;2023-06-22T09:41:01;24.60;1.00
21216;DHT22;10765;50.954;5.322;2023-06-22T09:43:28;24.70;1.00
21216;DHT22;10765;50.954;5.322;2023-06-22T09:45:56;24.60;1.00
21216;DHT22;10765;50.954;5.322;2023-06-22T09:48:23;24.70;1.00
21216;DHT22;10765;50.954;5.322;2023-06-22T09:50:50;24.60;1.00
21216;DHT22;10765;50.954;5.322;2023-06-22T09:53:17;24.70;1.00
21216;DHT22;10765;50.954;5.322;2023-06-22T09:55:44;24.70;1.00
21216;DHT22;10765;50.954;5.322;2023-06-22T09:58:11;24.80;1.00
21216;DHT22;10765;50.954;5.322;2023-06-22T10:00:37;24.70;1.00
21216;DHT22;10765;50.954;5.322;2023-06-22T10:03:06;24.40;1.00
21216;DHT22;10765;50.954;5.322;2023-06-22T10:05:33;23.80;99.90
21216;DHT22;10765;50.954;5.322;2023-06-22T10:08:00;23.30;1.00
21216;DHT22;10765;50.954;5.322;2023-06-22T10:10:26;22.70;99.90
21216;DHT22;10765;50.954;5.322;2023-06-22T10:12:55;22.40;1.00
21216;DHT22;10765;50.954;5.322;2023-06-22T10:15:23;22.30;99.90
21216;DHT22;10765;50.954;5.322;2023-06-22T10:17:52;22.10;99.90
21216;DHT22;10765;50.954;5.322;2023-06-22T10:20:20;22.10;97.50
21216;DHT22;10765;50.954;5.322;2023-06-22T10:22:47;22.00;1.00
21216;DHT22;10765;50.954;5.322;2023-06-22T10:25:14;21.90;1.00
21216;DHT22;10765;50.954;5.322;2023-06-22T10:27:41;21.50;1.00
21216;DHT22;10765;50.954;5.322;2023-06-22T10:30:09;21.20;1.00
21216;DHT22;10765;50.954;5.322;2023-06-22T10:32:39;21.00;1.00
21216;DHT22;10765;50.954;5.322;2023-06-22T10:35:06;21.00;1.00
21216;DHT22;10765;50.954;5.322;2023-06-22T10:37:35;21.00;99.90
21216;DHT22;10765;50.954;5.322;2023-06-22T10:40:02;21.00;1.00
21216;DHT22;10765;50.954;5.322;2023-06-22T10:42:31;20.90;1.00
21216;DHT22;10765;50.954;5.322;2023-06-22T10:44:57;21.00;99.90
21216;DHT22;10765;50.954;5.322;2023-06-22T10:47:24;21.00;99.90
21216;DHT22;10765;50.954;5.322;2023-06-22T10:49:51;20.90;99.90
21216;DHT22;10765;50.954;5.322;2023-06-22T10:52:18;20.90;99.90
21216;DHT22;10765;50.954;5.322;2023-06-22T10:54:46;21.10;99.90
21216;DHT22;10765;50.954;5.322;2023-06-22T10:57:13;21.30;1.00
21216;DHT22;10765;50.954;5.322;2023-06-22T10:59:40;21.30;1.00
21216;DHT22;10765;50.954;5.322;2023-06-22T11:02:07;21.40;1.00
21216;DHT22;10765;50.954;5.322;2023-06-22T11:04:34;21.30;1.00
21216;DHT22;10765;50.954;5.322;2023-06-22T11:07:01;21.20;1.00
21216;DHT22;10765;50.954;5.322;2023-06-22T11:09:28;21.00;1.00
21216;DHT22;10765;50.954;5.322;2023-06-22T11:11:56;20.80;1.00
21216;DHT22;10765;50.954;5.322;2023-06-22T11:14:24;20.90;99.90
21216;DHT22;10765;50.954;5.322;2023-06-22T11:16:51;21.00;91.10
21216;DHT22;10765;50.954;5.322;2023-06-22T11:19:18;21.10;1.00
21216;DHT22;10765;50.954;5.322;2023-06-22T11:21:45;21.10;1.00
21216;DHT22;10765;50.954;5.322;2023-06-22T11:24:12;21.20;1.00
21216;DHT22;10765;50.954;5.322;2023-06-22T11:26:39;21.50;1.00
21216;DHT22;10765;50.954;5.322;2023-06-22T11:29:08;21.70;99.90
21216;DHT22;10765;50.954;5.322;2023-06-22T11:31:35;22.20;1.00
21216;DHT22;10765;50.954;5.322;2023-06-22T11:34:02;22.90;99.90
21216;DHT22;10765;50.954;5.322;2023-06-22T11:36:29;23.00;28.80
21216;DHT22;10765;50.954;5.322;2023-06-22T11:38:58;22.60;98.00
21216;DHT22;10765;50.954;5.322;2023-06-22T11:41:25;22.80;1.00
21216;DHT22;10765;50.954;5.322;2023-06-22T11:43:52;22.70;99.90
21216;DHT22;10765;50.954;5.322;2023-06-22T11:46:20;22.20;99.90
21216;DHT22;10765;50.954;5.322;2023-06-22T11:48:47;22.00;99.90
21216;DHT22;10765;50.954;5.322;2023-06-22T11:51:14;22.00;1.00
21216;DHT22;10765;50.954;5.322;2023-06-22T11:53:41;21.90;1.00
21216;DHT22;10765;50.954;5.322;2023-06-22T11:56:08;22.20;69.60
21216;DHT22;10765;50.954;5.322;2023-06-22T11:58:35;22.20;72.30
21216;DHT22;10765;50.954;5.322;2023-06-22T12:01:02;22.00;99.90
21216;DHT22;10765;50.954;5.322;2023-06-22T12:03:30;21.90;1.00
21216;DHT22;10765;50.954;5.322;2023-06-22T12:05:57;21.80;99.90
21216;DHT22;10765;50.954;5.322;2023-06-22T12:08:24;21.60;99.90
21216;DHT22;10765;50.954;5.322;2023-06-22T12:10:51;21.30;93.30
21216;DHT22;10765;50.954;5.322;2023-06-22T12:13:19;21.00;99.90
21216;DHT22;10765;50.954;5.322;2023-06-22T12:15:46;20.80;1.00
21216;DHT22;10765;50.954;5.322;2023-06-22T12:18:13;20.60;1.00
21216;DHT22;10765;50.954;5.322;2023-06-22T12:20:42;20.40;99.90
21216;DHT22;10765;50.954;5.322;2023-06-22T12:23:08;20.30;1.00
21216;DHT22;10765;50.954;5.322;2023-06-22T12:25:35;20.30;99.90
21216;DHT22;10765;50.954;5.322;2023-06-22T12:28:02;20.30;99.90
21216;DHT22;10765;50.954;5.322;2023-06-22T12:30:30;20.20;99.90
21216;DHT22;10765;50.954;5.322;2023-06-22T12:32:57;20.10;99.90
21216;DHT22;10765;50.954;5.322;2023-06-22T12:35:24;20.10;99.90
21216;DHT22;10765;50.954;5.322;2023-06-22T12:37:52;20.00;99.90
21216;DHT22;10765;50.954;5.322;2023-06-22T12:40:19;20.00;99.90
21216;DHT22;10765;50.954;5.322;2023-06-22T12:42:46;19.90;99.90
21216;DHT22;10765;50.954;5.322;2023-06-22T12:45:13;19.90;99.90
21216;DHT22;10765;50.954;5.322;2023-06-22T12:47:40;19.90;99.90
21216;DHT22;10765;50.954;5.322;2023-06-22T12:50:07;19.80;99.90
21216;DHT22;10765;50.954;5.322;2023-06-22T12:52:36;19.80;99.90
21216;DHT22;10765;50.954;5.322;2023-06-22T12:55:06;19.70;99.90
21216;DHT22;10765;50.954;5.322;2023-06-22T12:57:33;19.60;99.90
21216;DHT22;10765;50.954;5.322;2023-06-22T13:00:00;19.50;99.90
21216;DHT22;10765;50.954;5.322;2023-06-22T13:02:27;19.50;99.90
21216;DHT22;10765;50.954;5.322;2023-06-22T13:04:55;19.50;99.90
21216;DHT22;10765;50.954;5.322;2023-06-22T13:07:22;19.50;99.90
21216;DHT22;10765;50.954;5.322;2023-06-22T13:09:49;19.30;99.90
21216;DHT22;10765;50.954;5.322;2023-06-22T13:12:19;19.30;99.90
21216;DHT22;10765;50.954;5.322;2023-06-22T13:14:46;19.30;99.90
21216;DHT22;10765;50.954;5.322;2023-06-22T13:17:13;19.30;99.90
21216;DHT22;10765;50.954;5.322;2023-06-22T13:19:40;19.30;99.90
21216;DHT22;10765;50.954;5.322;2023-06-22T13:22:26;19.20;99.90
21216;DHT22;10765;50.954;5.322;2023-06-22T13:24:54;19.20;99.90
21216;DHT22;10765;50.954;5.322;2023-06-22T13:27:22;19.10;99.90
21216;DHT22;10765;50.954;5.322;2023-06-22T13:29:49;19.00;99.90
21216;DHT22;10765;50.954;5.322;2023-06-22T13:32:16;19.00;99.90
21216;DHT22;10765;50.954;5.322;2023-06-22T13:34:43;18.90;99.90
21216;DHT22;10765;50.954;5.322;2023-06-22T13:37:10;18.90;99.90
21216;DHT22;10765;50.954;5.322;2023-06-22T13:39:37;18.90;99.90
21216;DHT22;10765;50.954;5.322;2023-06-22T13:42:05;18.80;99.90
21216;DHT22;10765;50.954;5.322;2023-06-22T13:44:33;18.80;99.90
21216;DHT22;10765;50.954;5.322;2023-06-22T13:47:00;18.70;99.90
21216;DHT22;10765;50.954;5.322;2023-06-22T13:49:27;18.80;99.90
21216;DHT22;10765;50.954;5.322;2023-06-22T13:51:54;18.70;99.90
21216;DHT22;10765;50.954;5.322;2023-06-22T13:54:21;18.70;99.90
21216;DHT22;10765;50.954;5.322;2023-06-22T13:56:48;18.70;99.90
21216;DHT22;10765;50.954;5.322;2023-06-22T13:59:15;18.70;99.90
21216;DHT22;10765;50.954;5.322;2023-06-22T14:01:43;18.70;99.90
21216;DHT22;10765;50.954;5.322;2023-06-22T14:04:10;18.70;99.90
21216;DHT22;10765;50.954;5.322;2023-06-22T14:06:38;18.70;99.90
21216;DHT22;10765;50.954;5.322;2023-06-22T14:09:05;18.70;99.90
21216;DHT22;10765;50.954;5.322;2023-06-22T14:11:32;18.60;99.90
21216;DHT22;10765;50.954;5.322;2023-06-22T14:13:59;18.60;99.90
21216;DHT22;10765;50.954;5.322;2023-06-22T14:16:26;18.60;99.90
21216;DHT22;10765;50.954;5.322;2023-06-22T14:18:54;18.50;99.90
21216;DHT22;10765;50.954;5.322;2023-06-22T14:21:21;18.50;99.90
21216;DHT22;10765;50.954;5.322;2023-06-22T14:23:48;18.40;99.90
21216;DHT22;10765;50.954;5.322;2023-06-22T14:26:15;18.40;99.90
21216;DHT22;10765;50.954;5.322;2023-06-22T14:28:44;18.30;99.90
21216;DHT22;10765;50.954;5.322;2023-06-22T14:31:14;18.30;99.90
21216;DHT22;10765;50.954;5.322;2023-06-22T14:33:48;18.40;99.90
21216;DHT22;10765;50.954;5.322;2023-06-22T14:36:16;18.30;99.90
21216;DHT22;10765;50.954;5.322;2023-06-22T14:38:44;18.20;99.90
21216;DHT22;10765;50.954;5.322;2023-06-22T14:41:11;18.20;99.90
21216;DHT22;10765;50.954;5.322;2023-06-22T14:43:43;18.10;99.90
21216;DHT22;10765;50.954;5.322;2023-06-22T14:46:11;18.10;99.90
21216;DHT22;10765;50.954;5.322;2023-06-22T14:48:38;18.10;99.90
21216;DHT22;10765;50.954;5.322;2023-06-22T14:51:05;18.00;99.90
21216;DHT22;10765;50.954;5.322;2023-06-22T14:53:33;18.00;99.90
21216;DHT22;10765;50.954;5.322;2023-06-22T14:56:00;18.00;99.90
21216;DHT22;10765;50.954;5.322;2023-06-22T14:58:27;18.00;99.90
21216;DHT22;10765;50.954;5.322;2023-06-22T15:00:55;18.00;99.90
21216;DHT22;10765;50.954;5.322;2023-06-22T15:03:22;18.00;99.90
21216;DHT22;10765;50.954;5.322;2023-06-22T15:05:53;18.00;99.90
21216;DHT22;10765;50.954;5.322;2023-06-22T15:08:20;18.00;99.90
21216;DHT22;10765;50.954;5.322;2023-06-22T15:10:49;17.90;99.90
21216;DHT22;10765;50.954;5.322;2023-06-22T15:13:16;17.90;99.90
21216;DHT22;10765;50.954;5.322;2023-06-22T15:15:43;17.90;99.90
21216;DHT22;10765;50.954;5.322;2023-06-22T15:18:10;17.90;99.90
21216;DHT22;10765;50.954;5.322;2023-06-22T15:20:37;17.90;99.90
21216;DHT22;10765;50.954;5.322;2023-06-22T15:23:05;17.80;99.90
21216;DHT22;10765;50.954;5.322;2023-06-22T15:25:32;17.80;99.90
21216;DHT22;10765;50.954;5.322;2023-06-22T15:28:00;17.80;99.90
21216;DHT22;10765;50.954;5.322;2023-06-22T15:30:28;17.80;99.90
21216;DHT22;10765;50.954;5.322;2023-06-22T15:32:55;17.80;99.90
21216;DHT22;10765;50.954;5.322;2023-06-22T15:35:22;17.80;99.90
21216;DHT22;10765;50.954;5.322;2023-06-22T15:37:49;17.80;99.90
21216;DHT22;10765;50.954;5.322;2023-06-22T15:40:17;17.80;99.90